Time;durP1;ratioP1;P1;durP2;ratioP2;P2;SDS_P1;SDS_P2;PMS_P1;PMS_P2;Temp;Humidity;BMP_temperature;BMP_pressure;BME280_temperature;BME280_humidity;BME280_pressure;Samples;Min_cycle;Max_cycle;Signal;HPM_P1;HPM_P2
2021/03/17 00:01:10;;;;;;;20.05;12.20;;;;;;;;;;5157119;27;20204;-52
2021/03/17 00:03:37;;;;;;;22.00;11.77;;;;;;;;;;5157561;27;20200;-55
2021/03/17 00:06:14;;;;;;;19.35;10.60;;;;;;;;;;5157965;27;20218;-49
2021/03/17 00:08:41;;;;;;;16.33;10.40;;;;;;;;;;5157134;27;20199;-55
2021/03/17 00:11:08;;;;;;;20.27;12.20;;;;;;;;;;5157195;27;20199;-54
2021/03/17 00:14:07;;;;;;;23.50;12.15;;;;;;;;;;5157635;27;20266;-53
2021/03/17 00:16:35;;;;;;;22.23;11.32;;;;;;;;;;5157317;27;20203;-52
2021/03/17 00:19:01;;;;;;;22.60;12.18;;;;;;;;;;5136816;28;20181;-50
2021/03/17 00:21:30;;;;;;;19.67;12.27;;;;;;;;;;5138502;27;20212;-49
2021/03/17 00:23:56;;;;;;;17.35;11.05;;;;;;;;;;5157031;27;20211;-55
2021/03/17 00:26:23;;;;;;;21.15;11.40;;;;;;;;;;5157263;27;20196;-56
2021/03/17 00:28:50;;;;;;;22.50;11.95;;;;;;;;;;5157479;27;20215;-53
2021/03/17 00:31:17;;;;;;;20.25;11.13;;;;;;;;;;5157710;27;20213;-53
2021/03/17 00:33:53;;;;;;;19.98;12.43;;;;;;;;;;5157380;27;20176;-50
2021/03/17 00:36:20;;;;;;;14.98;11.00;;;;;;;;;;5157188;27;20191;-51
2021/03/17 00:38:47;;;;;;;23.05;12.15;;;;;;;;;;5157308;27;20190;-51
2021/03/17 00:41:49;;;;;;;20.45;12.98;;;;;;;;;;5155701;27;20193;-52
2021/03/17 00:44:16;;;;;;;24.23;14.07;;;;;;;;;;5151317;27;20691;-51
2021/03/17 00:46:43;;;;;;;27.30;14.38;;;;;;;;;;5146995;27;20207;-54
2021/03/17 00:49:18;;;;;;;25.80;14.10;;;;;;;;;;5136144;28;20185;-51
2021/03/17 00:51:45;;;;;;;28.80;15.30;;;;;;;;;;5136140;28;20238;-49
2021/03/17 00:54:12;;;;;;;29.92;15.77;;;;;;;;;;5136268;28;20195;-55
2021/03/17 00:56:45;;;;;;;27.55;16.13;;;;;;;;;;5136530;28;20204;-48
2021/03/17 00:59:12;;;;;;;27.20;14.50;;;;;;;;;;5135987;28;20201;-54
2021/03/17 01:01:39;;;;;;;28.75;17.23;;;;;;;;;;5136299;28;20211;-53
2021/03/17 01:04:11;;;;;;;24.25;13.90;;;;;;;;;;5156444;28;20204;-56
2021/03/17 01:06:38;;;;;;;29.00;17.85;;;;;;;;;;5156782;28;20207;-50
2021/03/17 01:09:05;;;;;;;25.50;17.33;;;;;;;;;;5157067;28;20183;-52
2021/03/17 01:11:43;;;;;;;27.83;16.45;;;;;;;;;;5156249;28;20203;-53
2021/03/17 01:14:10;;;;;;;24.60;15.85;;;;;;;;;;5156501;27;20259;-57
2021/03/17 01:16:37;;;;;;;29.08;16.48;;;;;;;;;;5156403;28;20199;-50
2021/03/17 01:19:06;;;;;;;26.40;17.10;;;;;;;;;;5152721;28;20223;-49
2021/03/17 01:21:33;;;;;;;26.13;16.20;;;;;;;;;;5147806;28;20220;-49
2021/03/17 01:24:01;;;;;;;27.02;15.90;;;;;;;;;;5156206;28;20206;-56
2021/03/17 01:26:35;;;;;;;28.60;18.20;;;;;;;;;;5155987;28;20192;-57
2021/03/17 01:29:02;;;;;;;25.77;18.25;;;;;;;;;;5155269;28;20191;-48
2021/03/17 01:31:28;;;;;;;24.73;15.60;;;;;;;;;;5138607;28;20203;-56
2021/03/17 01:33:58;;;;;;;26.65;16.77;;;;;;;;;;5155850;27;20211;-54
2021/03/17 01:36:24;;;;;;;29.95;16.83;;;;;;;;;;5156365;28;20602;-55
2021/03/17 01:38:51;;;;;;;30.35;17.60;;;;;;;;;;5156239;28;20175;-51
2021/03/17 01:41:21;;;;;;;25.30;16.95;;;;;;;;;;5156698;28;20282;-52
2021/03/17 01:43:48;;;;;;;23.95;14.70;;;;;;;;;;5153548;28;20281;-56
2021/03/17 01:46:15;;;;;;;26.85;18.23;;;;;;;;;;5147390;28;20215;-58
2021/03/17 01:49:13;;;;;;;33.28;18.00;;;;;;;;;;5153186;28;20225;-52
2021/03/17 01:51:39;;;;;;;25.20;18.08;;;;;;;;;;5135774;28;20205;-56
2021/03/17 01:54:07;;;;;;;30.17;19.50;;;;;;;;;;5139756;27;20189;-56
2021/03/17 01:56:52;;;;;;;27.27;18.23;;;;;;;;;;5140405;28;20215;-55
2021/03/17 01:59:21;;;;;;;27.63;17.23;;;;;;;;;;5139843;27;20201;-61
2021/03/17 02:01:49;;;;;;;26.45;18.73;;;;;;;;;;5140078;27;20205;-54
2021/03/17 02:04:16;;;;;;;32.58;19.52;;;;;;;;;;5160307;27;20219;-53
2021/03/17 02:06:43;;;;;;;27.42;17.83;;;;;;;;;;5160524;27;20200;-52
2021/03/17 02:09:15;;;;;;;30.75;18.38;;;;;;;;;;5160075;27;20184;-54
2021/03/17 02:11:43;;;;;;;30.80;18.02;;;;;;;;;;5150515;27;20228;-56
2021/03/17 02:14:18;;;;;;;26.70;18.00;;;;;;;;;;5152779;27;20207;-52
2021/03/17 02:17:06;;;;;;;24.65;16.30;;;;;;;;;;5160053;27;20210;-52
2021/03/17 02:19:53;;;;;;;28.67;16.50;;;;;;;;;;5159459;27;20198;-49
2021/03/17 02:22:38;;;;;;;26.52;16.63;;;;;;;;;;5153717;27;20193;-48
2021/03/17 02:25:08;;;;;;;29.13;16.75;;;;;;;;;;5159380;27;20204;-50
2021/03/17 02:27:45;;;;;;;26.15;16.80;;;;;;;;;;5159332;27;20187;-58
2021/03/17 02:30:31;;;;;;;26.63;16.25;;;;;;;;;;5159024;27;20195;-50
2021/03/17 02:33:13;;;;;;;22.85;16.13;;;;;;;;;;5159689;27;20223;-48
2021/03/17 02:35:42;;;;;;;23.83;14.75;;;;;;;;;;5159065;27;20188;-55
2021/03/17 02:38:15;;;;;;;22.98;14.63;;;;;;;;;;5160018;27;20199;-48
2021/03/17 02:40:43;;;;;;;23.00;14.98;;;;;;;;;;5141892;27;20208;-59
2021/03/17 02:43:11;;;;;;;24.05;15.15;;;;;;;;;;5154330;27;20224;-49
2021/03/17 02:45:47;;;;;;;20.98;13.82;;;;;;;;;;5147889;27;20267;-51
2021/03/17 02:48:17;;;;;;;21.33;15.93;;;;;;;;;;5155504;27;20340;-57
2021/03/17 02:50:47;;;;;;;20.10;14.13;;;;;;;;;;5145752;27;20184;-56
2021/03/17 02:53:32;;;;;;;22.77;14.88;;;;;;;;;;5159248;27;20234;-53
2021/03/17 02:56:01;;;;;;;19.20;13.98;;;;;;;;;;5159375;27;20202;-48
2021/03/17 02:58:29;;;;;;;29.70;19.33;;;;;;;;;;5143362;27;20224;-52
2021/03/17 03:01:17;;;;;;;28.52;15.60;;;;;;;;;;5141209;27;20215;-52
2021/03/17 03:03:51;;;;;;;24.60;17.40;;;;;;;;;;5158442;27;20192;-50
2021/03/17 03:06:20;;;;;;;22.50;16.30;;;;;;;;;;5149991;27;20184;-59
2021/03/17 03:09:06;;;;;;;25.23;17.67;;;;;;;;;;5138387;28;20200;-56
2021/03/17 03:11:34;;;;;;;27.13;17.55;;;;;;;;;;5154966;27;20280;-55
2021/03/17 03:14:03;;;;;;;24.50;16.13;;;;;;;;;;5159144;27;20200;-53
2021/03/17 03:16:32;;;;;;;25.80;17.05;;;;;;;;;;5158305;27;20203;-56
2021/03/17 03:19:00;;;;;;;26.60;17.80;;;;;;;;;;5158471;27;20207;-53
2021/03/17 03:21:51;;;;;;;25.33;17.25;;;;;;;;;;5159439;27;20225;-56
2021/03/17 03:24:19;;;;;;;26.50;18.20;;;;;;;;;;5158367;27;20226;-55
2021/03/17 03:26:48;;;;;;;26.23;16.77;;;;;;;;;;5158186;27;20207;-59
2021/03/17 03:29:16;;;;;;;24.10;15.30;;;;;;;;;;5158003;27;20207;-55
2021/03/17 03:31:44;;;;;;;21.40;14.57;;;;;;;;;;5138081;28;20214;-54
2021/03/17 03:34:11;;;;;;;22.70;15.93;;;;;;;;;;5138396;28;20211;-51
2021/03/17 03:39:43;;;;;;;24.50;14.40;;;;;;;;;;5148864;27;20234;-57
2021/03/17 03:42:09;;;;;;;23.38;15.73;;;;;;;;;;5158658;27;20188;-49
2021/03/17 03:44:47;;;;;;;29.02;14.10;;;;;;;;;;5158145;27;20203;-57
2021/03/17 03:47:14;;;;;;;23.30;15.32;;;;;;;;;;5158385;27;20198;-52
2021/03/17 03:49:41;;;;;;;23.52;14.52;;;;;;;;;;5158495;27;20177;-55
2021/03/17 03:52:32;;;;;;;20.52;14.88;;;;;;;;;;5158112;27;20238;-56
2021/03/17 03:55:03;;;;;;;18.40;12.55;;;;;;;;;;5157863;27;20226;-56
2021/03/17 03:57:32;;;;;;;26.67;13.18;;;;;;;;;;5158490;27;20199;-51
2021/03/17 04:00:07;;;;;;;20.73;11.10;;;;;;;;;;5157955;27;20259;-47
2021/03/17 04:02:37;;;;;;;13.65;8.80;;;;;;;;;;5158318;27;20195;-51
2021/03/17 04:05:04;;;;;;;11.98;8.98;;;;;;;;;;5158064;27;20180;-50
2021/03/17 04:07:55;;;;;;;13.18;8.85;;;;;;;;;;5158641;27;20204;-54
2021/03/17 04:10:24;;;;;;;16.95;9.75;;;;;;;;;;5158869;27;20194;-51
2021/03/17 04:12:55;;;;;;;17.40;9.93;;;;;;;;;;5158551;27;20228;-58
2021/03/17 04:15:23;;;;;;;16.63;10.48;;;;;;;;;;5158043;27;20196;-54
2021/03/17 04:17:53;;;;;;;18.60;11.27;;;;;;;;;;5156582;27;20227;-56
2021/03/17 04:20:23;;;;;;;16.90;11.52;;;;;;;;;;5157704;27;20241;-48
2021/03/17 04:22:51;;;;;;;23.95;13.82;;;;;;;;;;5157736;27;20191;-57
2021/03/17 04:25:20;;;;;;;27.13;15.80;;;;;;;;;;5157957;27;20192;-56
2021/03/17 04:27:52;;;;;;;25.60;15.02;;;;;;;;;;5157846;27;20192;-49
2021/03/17 04:30:20;;;;;;;29.15;17.38;;;;;;;;;;5157895;27;20199;-51
2021/03/17 04:32:48;;;;;;;22.55;14.73;;;;;;;;;;5157718;27;20219;-52
2021/03/17 04:35:18;;;;;;;28.45;18.38;;;;;;;;;;5157914;27;20188;-56
2021/03/17 04:38:00;;;;;;;37.50;17.40;;;;;;;;;;5158045;27;20229;-53
2021/03/17 04:40:29;;;;;;;30.58;15.98;;;;;;;;;;5157676;27;20184;-56
2021/03/17 04:43:10;;;;;;;28.15;18.42;;;;;;;;;;5157869;27;20210;-53
2021/03/17 04:45:37;;;;;;;29.90;18.00;;;;;;;;;;5157849;27;20214;-52
2021/03/17 04:48:06;;;;;;;31.90;18.35;;;;;;;;;;5157821;27;20211;-54
2021/03/17 04:50:40;;;;;;;32.45;20.65;;;;;;;;;;5157553;27;20214;-55
2021/03/17 04:53:09;;;;;;;31.63;19.80;;;;;;;;;;5147401;27;20230;-58
2021/03/17 04:55:36;;;;;;;27.70;20.40;;;;;;;;;;5157710;27;20184;-53
2021/03/17 04:58:28;;;;;;;30.33;19.95;;;;;;;;;;5157391;27;20180;-58
2021/03/17 05:00:56;;;;;;;29.52;18.08;;;;;;;;;;5139061;27;20218;-53
2021/03/17 05:03:25;;;;;;;27.02;18.50;;;;;;;;;;5157018;27;20252;-57
2021/03/17 05:06:00;;;;;;;28.17;18.35;;;;;;;;;;5136319;28;20214;-51
2021/03/17 05:08:27;;;;;;;27.40;17.35;;;;;;;;;;5141953;28;20196;-52
2021/03/17 05:10:54;;;;;;;23.00;14.15;;;;;;;;;;5136233;28;20281;-55
2021/03/17 05:16:29;;;;;;;23.80;16.02;;;;;;;;;;5156757;28;20244;-56
2021/03/17 05:18:59;;;;;;;21.02;15.13;;;;;;;;;;5154015;28;20319;-55
2021/03/17 05:21:36;;;;;;;23.65;15.93;;;;;;;;;;5113773;28;20305;-54
2021/03/17 05:24:04;;;;;;;28.38;16.75;;;;;;;;;;5137533;28;20184;-53
2021/03/17 05:26:34;;;;;;;24.23;15.18;;;;;;;;;;5124938;27;20191;-56
2021/03/17 05:29:01;;;;;;;26.33;16.85;;;;;;;;;;5122494;27;20204;-51
2021/03/17 05:31:45;;;;;;;25.60;15.52;;;;;;;;;;5140938;28;20177;-56
2021/03/17 05:34:23;;;;;;;23.95;15.07;;;;;;;;;;5140879;27;20192;-54
2021/03/17 05:36:49;;;;;;;24.58;15.98;;;;;;;;;;5140668;28;20188;-54
2021/03/17 05:39:17;;;;;;;20.95;13.13;;;;;;;;;;5160388;27;20271;-57
2021/03/17 05:44:57;;;;;;;13.90;9.77;;;;;;;;;;5140266;28;20214;-53
2021/03/17 05:47:25;;;;;;;10.30;7.35;;;;;;;;;;5142288;27;20267;-46
2021/03/17 05:49:53;;;;;;;9.77;7.10;;;;;;;;;;5140781;27;20216;-58
2021/03/17 05:52:20;;;;;;;10.38;7.47;;;;;;;;;;5140540;27;20231;-51
2021/03/17 05:54:55;;;;;;;13.15;9.05;;;;;;;;;;5154386;27;20203;-56
2021/03/17 05:57:22;;;;;;;13.35;8.38;;;;;;;;;;5144816;27;20227;-56
2021/03/17 05:59:49;;;;;;;15.88;10.80;;;;;;;;;;5128650;28;20186;-53
2021/03/17 06:02:16;;;;;;;13.75;9.25;;;;;;;;;;5152695;27;20199;-48
2021/03/17 06:04:44;;;;;;;15.48;11.50;;;;;;;;;;5134684;27;20212;-52
2021/03/17 06:07:18;;;;;;;17.17;10.90;;;;;;;;;;5156191;27;20200;-56
2021/03/17 06:09:45;;;;;;;16.77;10.65;;;;;;;;;;5126212;27;20177;-55
2021/03/17 06:12:13;;;;;;;16.52;11.75;;;;;;;;;;5133032;28;20315;-56
2021/03/17 06:14:45;;;;;;;15.43;10.98;;;;;;;;;;5138444;28;20193;-56
2021/03/17 06:17:13;;;;;;;21.15;11.85;;;;;;;;;;5146639;27;20232;-55
2021/03/17 06:19:43;;;;;;;18.10;12.13;;;;;;;;;;5157074;27;20208;-57
2021/03/17 06:22:46;;;;;;;13.90;10.43;;;;;;;;;;5152557;27;20202;-55
2021/03/17 06:25:16;;;;;;;16.42;11.07;;;;;;;;;;5158244;27;20239;-48
2021/03/17 06:27:43;;;;;;;18.05;11.15;;;;;;;;;;5140114;27;20253;-55
2021/03/17 06:30:12;;;;;;;18.65;11.57;;;;;;;;;;5149428;27;20192;-56
2021/03/17 06:32:48;;;;;;;16.95;11.45;;;;;;;;;;5146517;27;20253;-54
2021/03/17 06:35:21;;;;;;;16.10;11.07;;;;;;;;;;5157017;27;20180;-52
2021/03/17 06:37:49;;;;;;;18.15;12.23;;;;;;;;;;5159383;27;20195;-53
2021/03/17 06:40:24;;;;;;;20.10;13.25;;;;;;;;;;5157350;27;20203;-58
2021/03/17 06:42:56;;;;;;;17.98;12.40;;;;;;;;;;5158658;27;20213;-57
2021/03/17 06:45:37;;;;;;;21.17;13.18;;;;;;;;;;5154600;27;20196;-53
2021/03/17 06:48:20;;;;;;;21.17;12.15;;;;;;;;;;5141418;27;20184;-49
2021/03/17 06:50:47;;;;;;;21.73;13.95;;;;;;;;;;5158825;27;20211;-52
2021/03/17 06:53:36;;;;;;;17.38;12.90;;;;;;;;;;5142054;27;20212;-53
2021/03/17 06:56:12;;;;;;;17.48;12.55;;;;;;;;;;5148142;27;20196;-58
2021/03/17 06:58:40;;;;;;;16.08;11.90;;;;;;;;;;5158617;27;20262;-57
2021/03/17 07:01:23;;;;;;;16.77;12.18;;;;;;;;;;5158376;27;20184;-55
2021/03/17 07:03:58;;;;;;;18.05;11.55;;;;;;;;;;5156290;27;20207;-54
2021/03/17 07:06:25;;;;;;;17.10;10.85;;;;;;;;;;5158209;27;20255;-56
2021/03/17 07:08:53;;;;;;;21.23;11.70;;;;;;;;;;5157654;27;20188;-52
2021/03/17 07:11:33;;;;;;;19.60;12.63;;;;;;;;;;5158318;27;20184;-54
2021/03/17 07:14:02;;;;;;;18.08;12.55;;;;;;;;;;5157700;27;20238;-50
2021/03/17 07:16:36;;;;;;;18.35;11.88;;;;;;;;;;5157667;27;20206;-53
2021/03/17 07:19:07;;;;;;;16.48;11.50;;;;;;;;;;5158106;27;20199;-54
2021/03/17 07:21:42;;;;;;;16.30;11.52;;;;;;;;;;5158068;27;20208;-50
2021/03/17 07:24:10;;;;;;;16.95;11.50;;;;;;;;;;5157366;27;20211;-55
2021/03/17 07:26:53;;;;;;;19.35;12.98;;;;;;;;;;5155868;27;20243;-48
2021/03/17 07:29:20;;;;;;;22.10;13.10;;;;;;;;;;5154507;27;20192;-53
2021/03/17 07:31:48;;;;;;;26.70;14.73;;;;;;;;;;5157982;27;20247;-55
2021/03/17 07:34:21;;;;;;;16.77;11.85;;;;;;;;;;5157352;27;20199;-50
2021/03/17 07:36:49;;;;;;;18.23;11.80;;;;;;;;;;5156830;27;20228;-53
2021/03/17 07:39:22;;;;;;;16.95;12.00;;;;;;;;;;5157076;27;20180;-54
2021/03/17 07:41:56;;;;;;;18.70;11.77;;;;;;;;;;5138484;27;20191;-55
2021/03/17 07:44:26;;;;;;;19.00;12.75;;;;;;;;;;5157596;27;20203;-55
2021/03/17 07:46:54;;;;;;;18.83;12.45;;;;;;;;;;5157560;27;20180;-56
2021/03/17 07:49:23;;;;;;;19.55;12.32;;;;;;;;;;5157178;27;20237;-51
2021/03/17 07:51:51;;;;;;;20.77;13.20;;;;;;;;;;5154166;27;20263;-53
2021/03/17 07:54:27;;;;;;;16.30;11.68;;;;;;;;;;5154920;27;20196;-53
2021/03/17 07:57:10;;;;;;;18.65;12.57;;;;;;;;;;5153212;27;20203;-57
2021/03/17 07:59:37;;;;;;;20.92;12.60;;;;;;;;;;5145600;27;20207;-57
2021/03/17 08:02:04;;;;;;;22.73;14.73;;;;;;;;;;5157668;27;20181;-51
2021/03/17 08:04:42;;;;;;;19.00;13.23;;;;;;;;;;5157318;27;20255;-52
2021/03/17 08:07:13;;;;;;;17.88;11.88;;;;;;;;;;5156567;27;20179;-54
2021/03/17 08:09:41;;;;;;;16.70;12.00;;;;;;;;;;5156893;27;20353;-55
2021/03/17 08:12:31;;;;;;;15.60;11.15;;;;;;;;;;5157291;27;20397;-56
2021/03/17 08:14:59;;;;;;;22.35;12.35;;;;;;;;;;5155420;27;20223;-52
2021/03/17 08:17:34;;;;;;;16.90;12.55;;;;;;;;;;5155990;27;20248;-52
2021/03/17 08:20:22;;;;;;;14.75;11.80;;;;;;;;;;5136316;27;20236;-52
2021/03/17 08:22:50;;;;;;;15.63;11.15;;;;;;;;;;5131504;27;20266;-51
2021/03/17 08:25:38;;;;;;;15.40;10.07;;;;;;;;;;5134772;28;20196;-52
2021/03/17 08:28:17;;;;;;;15.85;10.82;;;;;;;;;;5135098;28;20202;-56
2021/03/17 08:30:58;;;;;;;12.55;10.45;;;;;;;;;;5150254;27;20196;-53
2021/03/17 08:33:32;;;;;;;14.18;11.80;;;;;;;;;;5137538;27;20316;-53
2021/03/17 08:36:07;;;;;;;13.95;11.70;;;;;;;;;;5134792;28;20200;-54
2021/03/17 08:38:47;;;;;;;14.98;10.68;;;;;;;;;;5135190;28;20284;-55
2021/03/17 08:41:15;;;;;;;16.13;11.32;;;;;;;;;;5146712;27;20192;-53
2021/03/17 08:43:49;;;;;;;23.45;11.05;;;;;;;;;;5155344;27;20226;-56
2021/03/17 08:46:18;;;;;;;15.45;11.82;;;;;;;;;;5156243;27;20306;-53
2021/03/17 08:48:58;;;;;;;8.82;7.15;;;;;;;;;;5155293;27;20188;-49
2021/03/17 08:51:47;;;;;;;11.48;6.95;;;;;;;;;;5155930;27;20192;-47
2021/03/17 08:54:37;;;;;;;7.70;5.60;;;;;;;;;;5156538;27;20212;-53
2021/03/17 08:57:07;;;;;;;8.85;6.03;;;;;;;;;;5142962;27;20188;-50
2021/03/17 08:59:39;;;;;;;5.78;3.47;;;;;;;;;;5155347;27;20200;-54
2021/03/17 09:02:17;;;;;;;8.40;3.00;;;;;;;;;;5154498;27;20231;-54
2021/03/17 09:04:44;;;;;;;6.25;2.47;;;;;;;;;;5155664;27;20187;-50
2021/03/17 09:07:11;;;;;;;5.03;3.05;;;;;;;;;;5139402;28;20246;-54
2021/03/17 09:09:51;;;;;;;6.20;2.80;;;;;;;;;;5137282;28;20193;-55
2021/03/17 09:12:18;;;;;;;6.38;4.25;;;;;;;;;;5156296;28;20409;-51
2021/03/17 09:14:45;;;;;;;6.10;3.97;;;;;;;;;;5155670;27;20228;-54
2021/03/17 09:17:31;;;;;;;9.85;4.90;;;;;;;;;;5152656;27;20188;-57
2021/03/17 09:20:22;;;;;;;7.07;3.30;;;;;;;;;;5143313;28;20231;-54
2021/03/17 09:23:02;;;;;;;6.63;4.40;;;;;;;;;;5138346;28;20255;-55
2021/03/17 09:25:33;;;;;;;10.32;4.40;;;;;;;;;;5145505;27;20180;-56
2021/03/17 09:28:05;;;;;;;6.18;3.70;;;;;;;;;;5147659;28;20188;-48
2021/03/17 09:30:46;;;;;;;7.22;4.43;;;;;;;;;;5146970;28;20225;-50
2021/03/17 09:33:14;;;;;;;7.15;4.45;;;;;;;;;;5135660;28;20196;-54
2021/03/17 09:35:41;;;;;;;10.18;4.40;;;;;;;;;;5155723;28;20263;-52
2021/03/17 09:38:22;;;;;;;6.55;4.93;;;;;;;;;;5155875;28;20199;-52
2021/03/17 09:41:08;;;;;;;6.47;4.05;;;;;;;;;;5155417;27;20253;-59
2021/03/17 09:43:38;;;;;;;6.72;4.97;;;;;;;;;;5155323;28;20188;-51
2021/03/17 09:46:22;;;;;;;6.95;5.38;;;;;;;;;;5135249;28;20192;-55
2021/03/17 09:49:00;;;;;;;13.68;5.90;;;;;;;;;;5149672;27;20192;-54
2021/03/17 09:51:28;;;;;;;7.70;4.90;;;;;;;;;;5140412;28;20199;-52
2021/03/17 09:53:57;;;;;;;7.82;5.43;;;;;;;;;;5155722;27;20212;-52
2021/03/17 09:59:29;;;;;;;5.50;4.22;;;;;;;;;;5150424;28;20290;-49
2021/03/17 10:01:58;;;;;;;5.65;3.13;;;;;;;;;;5146337;27;20203;-52
2021/03/17 10:04:29;;;;;;;3.55;2.60;;;;;;;;;;5152816;28;20250;-60
2021/03/17 10:06:56;;;;;;;19.70;2.80;;;;;;;;;;5148446;28;20211;-52
2021/03/17 10:09:25;;;;;;;8.98;2.75;;;;;;;;;;5133776;28;20205;-51
2021/03/17 10:12:03;;;;;;;4.82;2.00;;;;;;;;;;5142173;28;20192;-56
2021/03/17 10:14:30;;;;;;;5.50;1.75;;;;;;;;;;5147823;27;20216;-56
2021/03/17 10:16:59;;;;;;;9.23;1.67;;;;;;;;;;5144237;27;20224;-57
2021/03/17 10:19:26;;;;;;;4.15;2.33;;;;;;;;;;5154987;27;20226;-59
2021/03/17 10:21:54;;;;;;;3.47;1.85;;;;;;;;;;5151153;27;20267;-55
2021/03/17 10:24:31;;;;;;;3.45;1.80;;;;;;;;;;5145369;27;20188;-50
2021/03/17 10:27:00;;;;;;;2.70;1.70;;;;;;;;;;5150716;27;20207;-54
2021/03/17 10:29:28;;;;;;;6.65;2.10;;;;;;;;;;5149780;27;20187;-55
2021/03/17 10:32:21;;;;;;;3.60;1.85;;;;;;;;;;5158246;27;20195;-55
2021/03/17 10:34:48;;;;;;;2.75;1.63;;;;;;;;;;5157465;27;20205;-49
2021/03/17 10:37:17;;;;;;;4.47;2.10;;;;;;;;;;5157638;27;20248;-55
2021/03/17 10:40:05;;;;;;;2.78;1.65;;;;;;;;;;5157615;27;20204;-58
2021/03/17 10:42:32;;;;;;;3.35;1.67;;;;;;;;;;5149196;27;20212;-56
2021/03/17 10:45:03;;;;;;;6.95;2.47;;;;;;;;;;5136964;28;20208;-59
2021/03/17 10:47:36;;;;;;;4.93;1.13;;;;;;;;;;5143696;27;20176;-49
2021/03/17 10:50:04;;;;;;;3.20;1.05;;;;;;;;;;5161357;27;20211;-56
2021/03/17 10:52:34;;;;;;;3.65;1.27;;;;;;;;;;5176525;27;20263;-54
2021/03/17 10:55:09;;;;;;;4.80;1.30;;;;;;;;;;5177152;27;20195;-56
2021/03/17 10:57:36;;;;;;;6.85;2.55;;;;;;;;;;5176754;27;20198;-54
2021/03/17 11:00:11;;;;;;;2.20;1.30;;;;;;;;;;5167151;27;20211;-50
2021/03/17 11:02:50;;;;;;;2.42;1.40;;;;;;;;;;5177809;27;20203;-53
2021/03/17 11:05:19;;;;;;;5.00;1.30;;;;;;;;;;5158563;27;20242;-51
2021/03/17 11:07:56;;;;;;;7.82;1.45;;;;;;;;;;5154729;27;20231;-56
2021/03/17 11:10:35;;;;;;;6.30;1.23;;;;;;;;;;5145479;27;20211;-59
2021/03/17 11:13:02;;;;;;;6.68;2.00;;;;;;;;;;5142928;27;20249;-59
2021/03/17 11:15:30;;;;;;;6.00;2.55;;;;;;;;;;5166650;27;20215;-54
2021/03/17 11:17:58;;;;;;;3.13;1.65;;;;;;;;;;5178659;27;20224;-57
2021/03/17 11:20:52;;;;;;;2.72;1.25;;;;;;;;;;5178604;27;20239;-56
2021/03/17 11:23:21;;;;;;;5.03;1.30;;;;;;;;;;5172733;27;20179;-53
2021/03/17 11:25:48;;;;;;;7.13;1.30;;;;;;;;;;5177399;27;20208;-56
2021/03/17 11:31:25;;;;;;;3.38;1.35;;;;;;;;;;5177612;27;20177;-56
2021/03/17 11:33:52;;;;;;;3.35;1.50;;;;;;;;;;5178020;27;20225;-55
2021/03/17 11:36:38;;;;;;;3.53;1.13;;;;;;;;;;5177476;27;20191;-57
2021/03/17 11:39:08;;;;;;;5.45;1.48;;;;;;;;;;5159315;27;20220;-55
2021/03/17 11:41:37;;;;;;;4.72;1.55;;;;;;;;;;5157148;27;20199;-57
2021/03/17 11:44:15;;;;;;;5.90;2.03;;;;;;;;;;5156589;27;20275;-55
2021/03/17 11:46:41;;;;;;;5.38;1.40;;;;;;;;;;5156404;27;20229;-59
2021/03/17 11:49:11;;;;;;;4.82;1.30;;;;;;;;;;5156734;27;20184;-58
2021/03/17 11:51:39;;;;;;;2.92;1.23;;;;;;;;;;5157084;27;20249;-56
2021/03/17 11:54:06;;;;;;;8.90;2.35;;;;;;;;;;5156477;27;20227;-59
2021/03/17 11:56:33;;;;;;;4.25;1.67;;;;;;;;;;5156673;27;20219;-54
2021/03/17 11:59:05;;;;;;;4.40;1.65;;;;;;;;;;5155306;27;20208;-60
2021/03/17 12:01:32;;;;;;;5.60;2.13;;;;;;;;;;5156533;27;20702;-60
2021/03/17 12:03:59;;;;;;;4.38;2.25;;;;;;;;;;5156138;27;20247;-57
2021/03/17 12:06:37;;;;;;;12.73;2.40;;;;;;;;;;5156731;27;20176;-53
2021/03/17 12:09:04;;;;;;;4.97;2.42;;;;;;;;;;5171610;27;20195;-54
2021/03/17 12:11:33;;;;;;;6.95;2.42;;;;;;;;;;5156180;27;20199;-60
2021/03/17 12:14:02;;;;;;;7.95;3.08;;;;;;;;;;5156109;27;20284;-56
2021/03/17 12:16:30;;;;;;;6.20;2.95;;;;;;;;;;5150619;27;20207;-59
2021/03/17 12:18:59;;;;;;;10.02;2.47;;;;;;;;;;5164784;27;20191;-53
2021/03/17 12:21:37;;;;;;;9.75;2.72;;;;;;;;;;5170935;27;20195;-50
2021/03/17 12:24:04;;;;;;;8.65;2.58;;;;;;;;;;5156285;27;20222;-51
2021/03/17 12:26:33;;;;;;;4.85;2.65;;;;;;;;;;5158366;27;20190;-51
2021/03/17 12:29:00;;;;;;;8.05;2.70;;;;;;;;;;5155872;27;20200;-48
2021/03/17 12:31:28;;;;;;;5.15;2.20;;;;;;;;;;5155703;27;20199;-56
2021/03/17 12:34:25;;;;;;;6.22;2.35;;;;;;;;;;5141192;27;20211;-53
2021/03/17 12:36:52;;;;;;;8.15;2.45;;;;;;;;;;5170237;27;20230;-57
2021/03/17 12:39:19;;;;;;;4.07;1.85;;;;;;;;;;5144652;27;20248;-56
2021/03/17 12:41:54;;;;;;;4.68;2.00;;;;;;;;;;5151111;27;20199;-56
2021/03/17 12:44:20;;;;;;;4.18;2.08;;;;;;;;;;5154701;27;20210;-58
2021/03/17 12:46:47;;;;;;;7.22;2.22;;;;;;;;;;5154978;27;20204;-55
2021/03/17 12:49:33;;;;;;;3.75;1.73;;;;;;;;;;5151691;27;20201;-57
2021/03/17 12:52:00;;;;;;;5.65;1.90;;;;;;;;;;5138120;27;20203;-53
2021/03/17 12:54:27;;;;;;;8.98;2.15;;;;;;;;;;5155150;27;20238;-56
2021/03/17 12:56:54;;;;;;;3.50;1.77;;;;;;;;;;5154759;27;20188;-57
2021/03/17 12:59:29;;;;;;;7.40;1.80;;;;;;;;;;5153710;27;20196;-57
2021/03/17 13:01:56;;;;;;;8.00;2.33;;;;;;;;;;5151150;27;20210;-56
2021/03/17 13:04:37;;;;;;;3.92;1.70;;;;;;;;;;5161889;27;20218;-54
2021/03/17 13:07:06;;;;;;;7.57;1.77;;;;;;;;;;5161752;27;20191;-57
2021/03/17 13:09:34;;;;;;;4.13;1.58;;;;;;;;;;5154431;28;20184;-52
2021/03/17 13:15:11;;;;;;;3.85;1.77;;;;;;;;;;5149265;28;20208;-55
2021/03/17 13:17:39;;;;;;;7.63;1.83;;;;;;;;;;5152776;28;20277;-61
2021/03/17 13:20:16;;;;;;;5.43;1.92;;;;;;;;;;5139273;27;20203;-57
2021/03/17 13:22:56;;;;;;;8.05;2.60;;;;;;;;;;5154905;28;20183;-60
2021/03/17 13:25:23;;;;;;;3.88;2.13;;;;;;;;;;5143125;28;20212;-49
2021/03/17 13:27:52;;;;;;;4.68;2.33;;;;;;;;;;5140973;28;20340;-56
2021/03/17 13:30:19;;;;;;;6.35;1.92;;;;;;;;;;5150087;27;20228;-55
2021/03/17 13:32:46;;;;;;;4.88;1.70;;;;;;;;;;5146876;28;20215;-56
2021/03/17 13:35:21;;;;;;;5.30;2.50;;;;;;;;;;5146117;27;20188;-58
2021/03/17 13:37:48;;;;;;;3.60;2.13;;;;;;;;;;5149372;28;20203;-61
2021/03/17 13:40:17;;;;;;;5.15;1.73;;;;;;;;;;5156341;28;20204;-53
2021/03/17 13:45:48;;;;;;;9.25;3.42;;;;;;;;;;5145188;27;20191;-55
2021/03/17 13:48:15;;;;;;;5.63;2.20;;;;;;;;;;5147311;27;20223;-55
2021/03/17 13:51:18;;;;;;;6.80;2.10;;;;;;;;;;5153240;27;20184;-56
2021/03/17 13:53:49;;;;;;;7.45;2.20;;;;;;;;;;5153808;27;20216;-57
2021/03/17 13:56:16;;;;;;;8.82;2.13;;;;;;;;;;5156091;27;20221;-53
2021/03/17 13:59:22;;;;;;;6.05;2.28;;;;;;;;;;5150919;27;20184;-57
2021/03/17 14:02:04;;;;;;;8.02;1.88;;;;;;;;;;5152720;27;20211;-55
2021/03/17 14:04:45;;;;;;;5.60;1.85;;;;;;;;;;5147654;27;20211;-55
2021/03/17 14:07:17;;;;;;;13.35;6.38;;;;;;;;;;5153277;27;20202;-61
2021/03/17 14:09:44;;;;;;;8.13;3.33;;;;;;;;;;5155049;27;20264;-54
2021/03/17 14:12:20;;;;;;;5.82;2.30;;;;;;;;;;5154213;27;20827;-55
2021/03/17 14:14:47;;;;;;;39.80;5.47;;;;;;;;;;5168127;27;20325;-54
2021/03/17 14:17:13;;;;;;;5.88;2.00;;;;;;;;;;5175369;27;20202;-54
2021/03/17 14:19:53;;;;;;;10.75;1.98;;;;;;;;;;5179898;27;20206;-58
2021/03/17 14:22:21;;;;;;;5.00;1.77;;;;;;;;;;5172229;27;20273;-55
2021/03/17 14:24:49;;;;;;;3.50;1.65;;;;;;;;;;5178461;27;20199;-53
2021/03/17 14:30:24;;;;;;;5.28;2.17;;;;;;;;;;5169149;27;20190;-60
2021/03/17 14:32:52;;;;;;;6.28;3.22;;;;;;;;;;5179073;27;20278;-56
2021/03/17 14:35:20;;;;;;;5.40;2.70;;;;;;;;;;5172719;27;20263;-56
2021/03/17 14:37:54;;;;;;;4.80;1.80;;;;;;;;;;5171815;27;20207;-56
2021/03/17 14:40:40;;;;;;;6.22;2.15;;;;;;;;;;5175389;27;20191;-58
2021/03/17 14:43:10;;;;;;;6.57;2.08;;;;;;;;;;5177564;27;20203;-61
2021/03/17 14:45:42;;;;;;;4.80;2.00;;;;;;;;;;5180355;27;20199;-53
2021/03/17 14:48:11;;;;;;;4.43;2.20;;;;;;;;;;5180360;27;20187;-53
2021/03/17 14:50:38;;;;;;;11.05;3.25;;;;;;;;;;5180768;27;20252;-55
2021/03/17 14:53:21;;;;;;;6.30;2.35;;;;;;;;;;5179283;27;20213;-60
2021/03/17 14:55:58;;;;;;;9.88;2.67;;;;;;;;;;5178739;27;20260;-56
2021/03/17 14:58:33;;;;;;;9.40;2.83;;;;;;;;;;5154422;27;20220;-54
2021/03/17 15:01:00;;;;;;;3.85;2.53;;;;;;;;;;5153391;27;20267;-54
2021/03/17 15:03:39;;;;;;;3.92;1.92;;;;;;;;;;5146659;27;20197;-59
2021/03/17 15:09:36;;;;;;;5.55;2.60;;;;;;;;;;5109960;27;20196;-60
2021/03/17 15:12:08;;;;;;;6.93;3.10;;;;;;;;;;5151093;27;20192;-55
2021/03/17 15:17:49;;;;;;;6.43;2.42;;;;;;;;;;5141281;27;20222;-60
2021/03/17 15:20:17;;;;;;;5.00;2.50;;;;;;;;;;5153933;27;20243;-57
2021/03/17 15:22:54;;;;;;;11.63;2.60;;;;;;;;;;5171337;27;20222;-56
2021/03/17 15:25:23;;;;;;;3.90;2.00;;;;;;;;;;5153939;27;20199;-52
2021/03/17 15:27:50;;;;;;;8.20;2.53;;;;;;;;;;5158555;27;20199;-54
2021/03/17 15:33:24;;;;;;;5.70;2.40;;;;;;;;;;5154474;27;20234;-56